Time;durP1;ratioP1;P1;durP2;ratioP2;P2;SDS_P1;SDS_P2;PMS_P1;PMS_P2;Temp;Humidity;BMP_temperature;BMP_pressure;BME280_temperature;BME280_humidity;BME280_pressure;Samples;Min_cycle;Max_cycle;Signal;HPM_P1;HPM_P2
2021/12/26 00:01:24;;;;;;;35.23;12.53;;;4.00;99.90;;;;;;5016583;28;20520;-93
2021/12/26 00:04:05;;;;;;;47.90;12.37;;;;;;;;;;5015177;28;20449;-94
2021/12/26 00:06:32;;;;;;;100.70;11.10;;;;;;;;;;5011954;28;20539;-93
2021/12/26 00:09:01;;;;;;;45.93;11.03;;;4.00;99.90;;;;;;5015828;28;20445;-94
2021/12/26 00:11:28;;;;;;;52.33;9.87;;;;;;;;;;5016151;28;20520;-93
2021/12/26 00:13:55;;;;;;;36.90;15.40;;;;;;;;;;5010709;28;20464;-93
2021/12/26 00:16:25;;;;;;;40.70;10.63;;;;;;;;;;5016053;28;20808;-92
2021/12/26 00:18:52;;;;;;;41.67;15.60;;;3.90;99.90;;;;;;5016079;28;20441;-94
2021/12/26 00:21:22;;;;;;;84.40;16.37;;;3.90;99.90;;;;;;5014742;28;20480;-93
2021/12/26 00:23:50;;;;;;;37.47;11.70;;;3.90;99.90;;;;;;5015427;28;20466;-93
2021/12/26 00:26:18;;;;;;;44.00;14.50;;;;;;;;;;5012422;28;20503;-95
2021/12/26 00:28:47;;;;;;;51.67;11.73;;;;;;;;;;5016215;28;20448;-94
2021/12/26 00:31:16;;;;;;;62.70;10.50;;;;;;;;;;5012776;28;20492;-94
2021/12/26 00:33:43;;;;;;;29.60;10.80;;;;;;;;;;5016138;28;20452;-93
2021/12/26 00:36:11;;;;;;;40.10;10.53;;;;;;;;;;5010928;28;20483;-92
2021/12/26 00:38:39;;;;;;;43.33;11.33;;;4.00;99.90;;;;;;5022562;28;20462;-92
2021/12/26 00:41:09;;;;;;;35.90;10.70;;;;;;;;;;5027831;28;20449;-93
2021/12/26 00:43:36;;;;;;;36.50;11.13;;;;;;;;;;5016343;28;20464;-93
2021/12/26 00:46:04;;;;;;;48.10;13.23;;;;;;;;;;5015289;28;20484;-92
2021/12/26 00:48:31;;;;;;;30.70;12.93;;;4.00;99.90;;;;;;5015613;28;20932;-93
2021/12/26 00:50:58;;;;;;;96.23;12.07;;;;;;;;;;5015033;28;20898;-92
2021/12/26 00:53:26;;;;;;;35.73;16.10;;;;;;;;;;5014782;28;21005;-91
2021/12/26 00:55:54;;;;;;;42.40;15.07;;;;;;;;;;5011462;28;20468;-94
2021/12/26 00:58:22;;;;;;;76.33;14.27;;;;;;;;;;5015132;28;20440;-93
2021/12/26 01:00:53;;;;;;;53.40;12.70;;;3.90;99.90;;;;;;5012036;28;20796;-94
2021/12/26 01:03:21;;;;;;;56.80;13.00;;;3.90;99.90;;;;;;5015290;28;20460;-93
2021/12/26 01:05:54;;;;;;;180.83;44.33;;;3.90;99.90;;;;;;5014907;28;20445;-92
2021/12/26 01:08:29;;;;;;;107.30;27.30;;;4.00;99.90;;;;;;5010413;28;20479;-94
2021/12/26 01:11:05;;;;;;;96.80;14.97;;;;;;;;;;5012313;28;21127;-94
2021/12/26 01:13:52;;;;;;;63.73;11.17;;;3.90;99.90;;;;;;5014832;28;20465;-93
2021/12/26 01:16:19;;;;;;;60.03;12.10;;;;;;;;;;5015213;28;20460;-93
2021/12/26 01:18:50;;;;;;;31.80;11.77;;;3.90;99.90;;;;;;5012090;28;20461;-93
2021/12/26 01:21:19;;;;;;;72.57;11.43;;;;;;;;;;5013706;28;20539;-94
2021/12/26 01:23:48;;;;;;;87.17;12.10;;;;;;;;;;5014166;28;20492;-92
2021/12/26 01:26:17;;;;;;;30.43;10.80;;;;;;;;;;5014872;28;20459;-93
2021/12/26 01:28:44;;;;;;;36.83;11.73;;;;;;;;;;5015023;28;20467;-94
2021/12/26 01:31:13;;;;;;;73.77;11.37;;;;;;;;;;5014578;28;20491;-94
2021/12/26 01:33:40;;;;;;;57.70;10.80;;;;;;;;;;5014511;28;20445;-93
2021/12/26 01:36:07;;;;;;;46.73;10.60;;;;;;;;;;5013195;28;20476;-93
2021/12/26 01:38:38;;;;;;;31.37;11.30;;;;;;;;;;5009791;28;20457;-92
2021/12/26 01:41:10;;;;;;;66.90;11.50;;;;;;;;;;5013317;28;20440;-94
2021/12/26 01:43:56;;;;;;;44.63;11.33;;;;;;;;;;5013920;28;20493;-94
2021/12/26 01:46:23;;;;;;;30.97;9.93;;;;;;;;;;5014087;28;20433;-95
2021/12/26 01:48:51;;;;;;;37.97;10.90;;;;;;;;;;5014537;28;20535;-93
2021/12/26 01:51:18;;;;;;;37.70;10.30;;;;;;;;;;5011694;28;20484;-94
2021/12/26 01:53:46;;;;;;;21.90;10.00;;;;;;;;;;5013352;28;20445;-92
2021/12/26 01:56:13;;;;;;;16.67;8.50;;;3.90;99.90;;;;;;5011167;28;20479;-93
2021/12/26 01:58:42;;;;;;;21.60;9.20;;;;;;;;;;5011723;28;20447;-91
2021/12/26 02:01:12;;;;;;;17.10;9.37;;;3.80;99.90;;;;;;5027721;28;20505;-91
2021/12/26 02:03:40;;;;;;;28.83;9.13;;;3.80;99.90;;;;;;5019730;28;20457;-93
2021/12/26 02:06:08;;;;;;;31.53;7.90;;;3.80;99.90;;;;;;5009024;28;20576;-93
2021/12/26 02:08:37;;;;;;;47.97;10.13;;;4.00;99.90;;;;;;5019121;28;20442;-92
2021/12/26 02:11:08;;;;;;;27.70;8.33;;;;;;;;;;5023891;28;20507;-92
2021/12/26 02:13:37;;;;;;;34.13;9.27;;;;;;;;;;5014479;28;20467;-94
2021/12/26 02:16:11;;;;;;;19.63;9.27;;;;;;;;;;5014692;28;20526;-93
2021/12/26 02:18:38;;;;;;;11.40;7.60;;;;;;;;;;5011434;28;20937;-93
2021/12/26 02:21:18;;;;;;;28.40;8.87;;;;;;;;;;5013946;28;20480;-93
2021/12/26 02:23:52;;;;;;;37.47;8.57;;;;;;;;;;5013283;28;20453;-93
2021/12/26 02:29:07;;;;;;;22.47;9.13;;;;;;;;;;5013833;28;20968;-90
2021/12/26 02:31:34;;;;;;;15.80;8.20;;;;;;;;;;5011262;28;20595;-94
2021/12/26 02:34:04;;;;;;;36.53;8.23;;;;;;;;;;5013957;28;20511;-91
2021/12/26 02:36:33;;;;;;;14.50;8.30;;;;;;;;;;5009966;28;20823;-92
2021/12/26 02:39:00;;;;;;;36.20;9.17;;;;;;;;;;5013123;28;20491;-93
2021/12/26 02:41:27;;;;;;;23.20;9.20;;;;;;;;;;5013782;28;21097;-92
2021/12/26 02:43:55;;;;;;;29.50;8.00;;;;;;;;;;5014002;28;20451;-93
2021/12/26 02:46:22;;;;;;;15.20;7.70;;;;;;;;;;5009627;28;20464;-94
2021/12/26 02:48:49;;;;;;;15.80;7.47;;;;;;;;;;5011214;28;20436;-92
2021/12/26 02:51:16;;;;;;;30.70;9.17;;;;;;;;;;5008593;28;20452;-92
2021/12/26 02:53:48;;;;;;;19.83;8.40;;;;;;;;;;5007899;28;20465;-92
2021/12/26 02:56:15;;;;;;;28.67;8.10;;;;;;;;;;5009291;28;20495;-92
2021/12/26 02:58:43;;;;;;;16.80;7.10;;;;;;;;;;5015717;28;20459;-93
2021/12/26 03:01:13;;;;;;;12.40;6.77;;;3.70;99.90;;;;;;5018074;28;20483;-91
2021/12/26 03:03:41;;;;;;;13.83;7.07;;;;;;;;;;5017309;28;20448;-92
2021/12/26 03:06:16;;;;;;;19.93;7.60;;;;;;;;;;5017238;28;20444;-93
2021/12/26 03:08:46;;;;;;;19.27;7.87;;;;;;;;;;5016730;28;20498;-93
2021/12/26 03:11:13;;;;;;;9.43;6.83;;;;;;;;;;5017260;28;20855;-91
2021/12/26 03:13:44;;;;;;;9.30;6.60;;;3.80;99.90;;;;;;5014504;28;20456;-93
2021/12/26 03:16:13;;;;;;;14.83;7.30;;;;;;;;;;5013136;28;20453;-93
2021/12/26 03:18:40;;;;;;;12.90;7.73;;;;;;;;;;5017454;28;20471;-92
2021/12/26 03:21:11;;;;;;;21.77;7.90;;;;;;;;;;5012184;28;20485;-93
2021/12/26 03:23:38;;;;;;;14.03;8.00;;;;;;;;;;5016415;28;20540;-92
2021/12/26 03:26:09;;;;;;;11.03;7.50;;;;;;;;;;5016901;28;20813;-93
2021/12/26 03:28:36;;;;;;;21.83;8.13;;;;;;;;;;5012579;28;20457;-94
2021/12/26 03:31:04;;;;;;;16.73;7.80;;;;;;;;;;5012594;28;20453;-92
2021/12/26 03:33:31;;;;;;;13.17;8.13;;;;;;;;;;5012374;28;20493;-93
2021/12/26 03:35:58;;;;;;;13.17;8.37;;;;;;;;;;5016936;28;20476;-94
2021/12/26 03:38:28;;;;;;;11.67;7.53;;;3.80;99.90;;;;;;5015269;28;20531;-92
2021/12/26 03:40:56;;;;;;;11.30;7.57;;;;;;;;;;5025762;28;20495;-94
2021/12/26 03:43:27;;;;;;;10.17;7.00;;;3.80;99.90;;;;;;5023140;28;20451;-92
2021/12/26 03:45:55;;;;;;;9.90;7.17;;;3.80;99.90;;;;;;5008717;28;20457;-94
2021/12/26 03:48:25;;;;;;;12.20;8.17;;;3.80;99.90;;;;;;5012930;28;20453;-93
2021/12/26 03:50:53;;;;;;;11.60;7.33;;;;;;;;;;5010119;28;20457;-92
2021/12/26 03:53:21;;;;;;;16.23;7.77;;;;;;;;;;5013564;28;20489;-94
2021/12/26 03:55:48;;;;;;;13.47;9.13;;;3.80;99.90;;;;;;5012848;28;20496;-93
2021/12/26 03:58:16;;;;;;;18.17;7.67;;;;;;;;;;5009594;28;20794;-92
2021/12/26 04:00:46;;;;;;;13.63;7.57;;;3.70;99.90;;;;;;5016744;28;20456;-91
2021/12/26 04:03:13;;;;;;;10.93;7.70;;;;;;;;;;5008791;28;20456;-93
2021/12/26 04:05:40;;;;;;;11.87;7.73;;;;;;;;;;5016541;28;20452;-93
2021/12/26 04:08:08;;;;;;;14.57;7.60;;;;;;;;;;5016316;28;20442;-92
2021/12/26 04:10:35;;;;;;;13.10;7.40;;;3.70;99.90;;;;;;5015314;28;20814;-92
2021/12/26 04:13:02;;;;;;;19.77;6.90;;;;;;;;;;5016294;28;20484;-93
2021/12/26 04:15:29;;;;;;;19.33;8.17;;;;;;;;;;5010810;28;20461;-94
2021/12/26 04:17:59;;;;;;;11.73;7.70;;;3.80;99.90;;;;;;5028801;28;20463;-92
2021/12/26 04:20:28;;;;;;;10.13;7.17;;;3.80;99.90;;;;;;5013101;28;20504;-94
2021/12/26 04:22:56;;;;;;;12.70;7.37;;;3.80;99.90;;;;;;5010764;28;20987;-94
2021/12/26 04:25:23;;;;;;;11.50;7.57;;;3.70;99.90;;;;;;5008285;28;20436;-93
2021/12/26 04:27:51;;;;;;;11.60;7.50;;;;;;;;;;5016327;28;20457;-92
2021/12/26 04:30:20;;;;;;;11.47;7.63;;;3.80;99.90;;;;;;5016014;28;20441;-93
2021/12/26 04:32:47;;;;;;;12.60;8.30;;;;;;;;;;5010892;28;20481;-95
2021/12/26 04:35:16;;;;;;;12.67;7.37;;;3.80;99.90;;;;;;5011924;28;20818;-94
2021/12/26 04:37:44;;;;;;;13.33;8.53;;;;;;;;;;5013212;28;20457;-95
2021/12/26 04:40:14;;;;;;;11.70;7.80;;;3.80;99.90;;;;;;5015247;28;20449;-94
2021/12/26 04:42:44;;;;;;;14.63;7.53;;;;;;;;;;5013835;28;20467;-93
2021/12/26 04:45:11;;;;;;;10.97;7.73;;;;;;;;;;5015545;28;20441;-94
2021/12/26 04:47:38;;;;;;;16.70;7.53;;;;;;;;;;5011187;28;20460;-95
2021/12/26 04:50:07;;;;;;;13.90;8.80;;;3.80;99.90;;;;;;5011557;28;20456;-93
2021/12/26 04:52:36;;;;;;;18.63;7.60;;;3.80;99.90;;;;;;5011007;28;20507;-93
2021/12/26 04:55:05;;;;;;;16.33;7.40;;;;;;;;;;5011877;28;20445;-93
2021/12/26 04:57:32;;;;;;;16.93;8.70;;;;;;;;;;5015384;28;20843;-93
2021/12/26 05:00:00;;;;;;;9.60;6.53;;;;;;;;;;5012501;28;20441;-93
2021/12/26 05:02:29;;;;;;;18.90;8.10;;;;;;;;;;5015498;28;20465;-94
2021/12/26 05:04:56;;;;;;;17.93;7.47;;;;;;;;;;5012813;28;20433;-92
2021/12/26 05:07:24;;;;;;;18.47;8.40;;;;;;;;;;5010006;28;20863;-94
2021/12/26 05:09:52;;;;;;;12.90;7.97;;;;;;;;;;5028081;28;20461;-95
2021/12/26 05:12:19;;;;;;;13.83;7.93;;;;;;;;;;5020812;28;20491;-93
2021/12/26 05:14:47;;;;;;;25.20;9.17;;;;;;;;;;5012407;28;20433;-93
2021/12/26 05:17:14;;;;;;;12.33;7.40;;;;;;;;;;5010745;28;20467;-93
2021/12/26 05:19:41;;;;;;;14.57;8.00;;;;;;;;;;5015450;28;20485;-94
2021/12/26 05:22:08;;;;;;;12.07;8.17;;;;;;;;;;5014456;28;20452;-93
2021/12/26 05:24:35;;;;;;;14.07;8.40;;;;;;;;;;5014374;28;20436;-93
2021/12/26 05:27:04;;;;;;;11.00;6.93;;;;;;;;;;5011340;28;20457;-92
2021/12/26 05:29:31;;;;;;;20.33;8.27;;;;;;;;;;5011672;28;20488;-94
2021/12/26 05:31:58;;;;;;;13.20;8.10;;;;;;;;;;5015056;28;20929;-94
2021/12/26 05:34:25;;;;;;;21.13;8.63;;;;;;;;;;5010387;28;20476;-93
2021/12/26 05:36:52;;;;;;;32.93;9.70;;;;;;;;;;5009344;28;20472;-93
2021/12/26 05:39:19;;;;;;;37.60;9.33;;;;;;;;;;5009883;28;20448;-94
2021/12/26 05:41:46;;;;;;;28.37;9.07;;;;;;;;;;5014840;28;20456;-95
2021/12/26 05:44:15;;;;;;;19.50;8.70;;;;;;;;;;5010731;28;20457;-93
2021/12/26 05:46:43;;;;;;;20.63;8.93;;;;;;;;;;5011609;28;20443;-94
2021/12/26 05:49:10;;;;;;;31.17;9.10;;;;;;;;;;5014696;28;20448;-95
2021/12/26 05:51:39;;;;;;;13.40;8.70;;;;;;;;;;5015224;28;20456;-94
2021/12/26 05:54:06;;;;;;;21.60;9.63;;;;;;;;;;5009622;28;20488;-93
2021/12/26 05:56:33;;;;;;;27.07;8.60;;;;;;;;;;5014505;28;20433;-95
2021/12/26 05:59:01;;;;;;;34.13;9.60;;;;;;;;;;5006418;28;20464;-94
2021/12/26 06:01:29;;;;;;;26.27;8.97;;;;;;;;;;5014942;28;20434;-93
2021/12/26 06:03:56;;;;;;;32.30;9.40;;;;;;;;;;5011798;28;20464;-93
2021/12/26 06:06:23;;;;;;;25.00;10.43;;;;;;;;;;5014885;28;20449;-93
2021/12/26 06:08:51;;;;;;;26.57;9.37;;;;;;;;;;5010889;28;20507;-93
2021/12/26 06:11:18;;;;;;;43.10;11.37;;;;;;;;;;5014238;28;20437;-93
2021/12/26 06:13:45;;;;;;;31.10;9.30;;;;;;;;;;5011233;28;20547;-93
2021/12/26 06:16:12;;;;;;;21.10;9.90;;;;;;;;;;5027512;28;20501;-92
2021/12/26 06:18:42;;;;;;;32.87;9.23;;;;;;;;;;5028655;28;20466;-93
2021/12/26 06:21:09;;;;;;;30.23;9.13;;;;;;;;;;5033943;28;20487;-93
2021/12/26 06:23:36;;;;;;;27.40;8.90;;;;;;;;;;5018230;28;20456;-94
2021/12/26 06:26:03;;;;;;;33.70;9.90;;;;;;;;;;5014480;28;20445;-94
2021/12/26 06:28:33;;;;;;;44.53;10.30;;;;;;;;;;5014428;28;20461;-93
2021/12/26 06:31:00;;;;;;;33.40;9.97;;;;;;;;;;5030444;28;20437;-92
2021/12/26 06:33:27;;;;;;;75.30;11.10;;;;;;;;;;5029544;28;20495;-94
2021/12/26 06:35:56;;;;;;;73.43;10.80;;;;;;;;;;5016320;28;20451;-94
2021/12/26 06:38:31;;;;;;;20.77;8.03;;;;;;;;;;5038281;28;20470;-93
2021/12/26 06:41:01;;;;;;;43.10;10.97;;;;;;;;;;5036244;28;20444;-93
2021/12/26 06:43:31;;;;;;;29.63;10.00;;;;;;;;;;5036047;28;20444;-94
2021/12/26 06:45:59;;;;;;;51.17;9.93;;;;;;;;;;5032818;28;20447;-94
2021/12/26 06:48:29;;;;;;;29.07;9.00;;;;;;;;;;5027662;28;20947;-94
2021/12/26 06:50:59;;;;;;;56.30;10.77;;;4.10;99.90;;;;;;5032819;28;20471;-94
2021/12/26 06:53:26;;;;;;;49.90;11.30;;;;;;;;;;5025989;28;20476;-93
2021/12/26 06:55:56;;;;;;;32.53;11.13;;;;;;;;;;5020972;28;20449;-92
2021/12/26 06:58:23;;;;;;;27.37;9.27;;;;;;;;;;4994965;28;20461;-95
2021/12/26 07:00:53;;;;;;;34.67;10.60;;;;;;;;;;5029053;28;20444;-94
2021/12/26 07:03:22;;;;;;;21.10;11.47;;;;;;;;;;5022137;28;20463;-95
2021/12/26 07:05:49;;;;;;;22.47;11.70;;;;;;;;;;5016192;28;20456;-94
2021/12/26 07:08:21;;;;;;;18.30;10.27;;;;;;;;;;5022824;28;20443;-92
2021/12/26 07:10:49;;;;;;;39.37;12.53;;;;;;;;;;5036639;28;20459;-94
2021/12/26 07:13:16;;;;;;;22.47;12.23;;;;;;;;;;5023310;28;20567;-95
2021/12/26 07:15:43;;;;;;;16.93;10.20;;;;;;;;;;5017538;28;20454;-94
2021/12/26 07:18:10;;;;;;;21.90;11.80;;;;;;;;;;5027249;28;20456;-94
2021/12/26 07:20:38;;;;;;;20.10;11.73;;;;;;;;;;5023944;28;20482;-94
2021/12/26 07:23:11;;;;;;;18.87;12.17;;;;;;;;;;4995917;28;20458;-93
2021/12/26 07:25:43;;;;;;;20.17;11.27;;;;;;;;;;5003827;28;20453;-91
2021/12/26 07:28:10;;;;;;;20.53;11.50;;;;;;;;;;5014933;28;20468;-93
2021/12/26 07:30:39;;;;;;;23.70;11.73;;;;;;;;;;5000964;28;20461;-95
2021/12/26 07:33:06;;;;;;;23.37;12.50;;;;;;;;;;4998914;28;20494;-94
2021/12/26 07:35:33;;;;;;;18.10;10.73;;;;;;;;;;5000045;28;20521;-93
2021/12/26 07:38:08;;;;;;;23.80;12.00;;;;;;;;;;4994006;28;20465;-92
2021/12/26 07:40:35;;;;;;;23.20;12.50;;;;;;;;;;4977835;28;21007;-91
2021/12/26 07:43:04;;;;;;;21.67;12.07;;;;;;;;;;4977683;28;20461;-93
2021/12/26 07:45:32;;;;;;;20.13;11.13;;;4.30;99.90;;;;;;4983242;28;20450;-94
2021/12/26 07:47:59;;;;;;;19.33;11.80;;;;;;;;;;4980083;28;20451;-94
2021/12/26 07:50:34;;;;;;;18.33;11.17;;;;;;;;;;4979045;28;20434;-91
2021/12/26 07:53:06;;;;;;;19.80;12.10;;;;;;;;;;4984716;28;20474;-94
2021/12/26 07:55:33;;;;;;;25.10;11.23;;;;;;;;;;4973328;28;21015;-92
2021/12/26 07:58:01;;;;;;;19.63;12.10;;;;;;;;;;4978819;28;20458;-94
2021/12/26 08:00:48;;;;;;;20.67;12.30;;;;;;;;;;4977915;28;20447;-93
2021/12/26 08:03:15;;;;;;;22.73;12.80;;;;;;;;;;4978619;28;20442;-92
2021/12/26 08:05:42;;;;;;;23.43;13.27;;;;;;;;;;4979697;28;20466;-93
2021/12/26 08:08:13;;;;;;;24.57;13.20;;;;;;;;;;4990145;28;20454;-93
2021/12/26 08:10:40;;;;;;;20.23;12.07;;;;;;;;;;4980873;28;20439;-94
2021/12/26 08:13:08;;;;;;;21.40;12.93;;;;;;;;;;4980278;28;20494;-94
2021/12/26 08:15:35;;;;;;;22.87;13.30;;;;;;;;;;4980617;28;20454;-93
2021/12/26 08:18:04;;;;;;;21.23;12.97;;;4.70;99.90;;;;;;4980636;28;20458;-94
2021/12/26 08:20:31;;;;;;;20.43;13.33;;;;;;;;;;4949989;28;1143205;-96
2021/12/26 08:23:00;;;;;;;27.10;13.37;;;;;;;;;;5015352;28;20206;-92
2021/12/26 08:25:27;;;;;;;27.50;13.40;;;;;;;;;;5018640;28;20448;-91
2021/12/26 08:27:55;;;;;;;22.40;12.60;;;;;;;;;;5018243;28;20463;-92
2021/12/26 08:30:24;;;;;;;23.27;14.90;;;;;;;;;;5016947;28;20448;-92
2021/12/26 08:33:03;;;;;;;22.77;12.83;;;;;;;;;;5016719;28;20465;-93
2021/12/26 08:35:32;;;;;;;24.03;12.80;;;;;;;;;;5014975;28;20520;-92
2021/12/26 08:37:59;;;;;;;24.50;14.03;;;;;;;;;;5018776;28;20457;-91
2021/12/26 08:40:26;;;;;;;24.27;12.70;;;;;;;;;;5013947;28;20461;-95
2021/12/26 08:43:05;;;;;;;22.30;14.30;;;;;;;;;;5013009;28;20523;-93
2021/12/26 08:45:33;;;;;;;26.07;15.27;;;;;;;;;;5018895;28;20658;-94
2021/12/26 08:48:00;;;;;;;20.10;12.77;;;;;;;;;;5035849;23;20500;-92
2021/12/26 08:50:28;;;;;;;23.23;13.07;;;5.10;99.90;;;;;;5027671;28;20887;-91
2021/12/26 08:52:56;;;;;;;21.40;14.03;;;4.90;99.90;;;;;;5026780;28;20449;-90
2021/12/26 08:55:24;;;;;;;25.50;13.50;;;5.10;99.90;;;;;;5025756;28;20440;-90
2021/12/26 08:57:52;;;;;;;24.17;14.23;;;;;;;;;;5034056;28;20452;-90
2021/12/26 09:00:19;;;;;;;24.47;13.40;;;5.60;99.90;;;;;;5029094;28;20484;-91
2021/12/26 09:02:46;;;;;;;23.03;13.80;;;;;;;;;;5014102;28;20445;-90
2021/12/26 09:05:13;;;;;;;25.77;14.13;;;;;;;;;;5014440;28;20461;-92
2021/12/26 09:07:42;;;;;;;25.67;14.13;;;5.10;99.90;;;;;;5017843;28;20444;-89
2021/12/26 09:10:13;;;;;;;20.90;13.40;;;5.00;99.90;;;;;;5020476;28;20448;-90
2021/12/26 09:12:42;;;;;;;21.17;13.30;;;5.00;99.90;;;;;;5016678;28;20448;-92
2021/12/26 09:15:11;;;;;;;24.50;14.50;;;4.70;99.90;;;;;;5016492;28;20476;-92
2021/12/26 09:17:38;;;;;;;24.30;12.83;;;;;;;;;;5016725;28;20444;-95
2021/12/26 09:20:07;;;;;;;19.10;12.67;;;5.10;99.90;;;;;;5016725;28;20449;-94
2021/12/26 09:22:34;;;;;;;24.60;14.47;;;;;;;;;;5010850;28;20522;-93
2021/12/26 09:25:03;;;;;;;22.23;12.97;;;;;;;;;;5012225;28;20971;-94
2021/12/26 09:27:31;;;;;;;19.00;12.60;;;5.50;99.90;;;;;;5011595;28;20433;-91
2021/12/26 09:29:59;;;;;;;18.60;13.63;;;;;;;;;;5014958;28;20512;-92
2021/12/26 09:32:26;;;;;;;19.13;12.73;;;;;;;;;;5020139;28;20480;-95
2021/12/26 09:34:53;;;;;;;19.10;13.40;;;;;;;;;;5040249;28;20478;-92
2021/12/26 09:37:20;;;;;;;21.07;12.90;;;5.20;99.90;;;;;;5049330;28;20467;-93
2021/12/26 09:39:59;;;;;;;20.50;13.97;;;5.30;99.90;;;;;;5031285;28;20432;-92
2021/12/26 09:42:28;;;;;;;20.10;13.17;;;;;;;;;;5026450;28;20475;-91
2021/12/26 09:44:58;;;;;;;20.87;13.23;;;5.30;99.90;;;;;;5039823;28;20491;-93
2021/12/26 09:47:25;;;;;;;19.53;12.53;;;;;;;;;;5034444;28;20455;-91
2021/12/26 09:49:52;;;;;;;27.37;13.27;;;;;;;;;;5034446;28;20970;-92
2021/12/26 09:52:19;;;;;;;20.50;12.10;;;;;;;;;;5048446;23;20481;-90
2021/12/26 09:54:52;;;;;;;21.40;13.30;;;;;;;;;;5003723;28;20485;-94
2021/12/26 09:57:21;;;;;;;17.00;11.60;;;;;;;;;;5012971;23;20493;-94
2021/12/26 09:59:48;;;;;;;21.20;14.00;;;;;;;;;;5001597;28;20957;-91
2021/12/26 10:02:25;;;;;;;27.67;14.20;;;5.90;99.90;;;;;;5016310;23;20497;-91
2021/12/26 10:04:53;;;;;;;21.77;13.63;;;5.90;99.90;;;;;;5014400;23;20497;-92
2021/12/26 10:07:21;;;;;;;22.03;13.83;;;5.90;99.90;;;;;;4992231;28;20460;-94
2021/12/26 10:09:49;;;;;;;21.40;13.63;;;6.00;99.90;;;;;;4993754;28;20454;-94
2021/12/26 10:12:20;;;;;;;19.87;14.07;;;6.20;99.90;;;;;;4997598;28;20454;-93
2021/12/26 10:14:49;;;;;;;16.37;12.13;;;6.30;99.90;;;;;;4998598;28;20481;-93
2021/12/26 10:17:32;;;;;;;19.17;13.20;;;6.50;99.90;;;;;;5011304;23;20489;-91
2021/12/26 10:20:07;;;;;;;18.03;12.43;;;6.30;99.90;;;;;;5012928;23;20485;-92
2021/12/26 10:22:35;;;;;;;18.83;12.17;;;;;;;;;;5022199;23;20488;-94
2021/12/26 10:25:09;;;;;;;16.00;11.40;;;6.50;99.90;;;;;;4999197;28;20452;-92
2021/12/26 10:27:37;;;;;;;15.97;11.17;;;;;;;;;;5000971;28;20933;-93
2021/12/26 10:30:14;;;;;;;14.30;10.47;;;6.90;99.90;;;;;;5005668;28;20512;-92
2021/12/26 10:32:42;;;;;;;10.40;7.37;;;6.70;99.90;;;;;;5004164;28;20480;-92
2021/12/26 10:35:12;;;;;;;8.70;6.90;;;6.60;99.90;;;;;;4997308;28;20493;-93
2021/12/26 10:37:41;;;;;;;10.10;7.97;;;6.40;99.90;;;;;;5001638;28;20453;-91
2021/12/26 10:40:12;;;;;;;10.20;7.60;;;6.50;99.90;;;;;;5001909;28;20437;-91
2021/12/26 10:42:41;;;;;;;10.23;7.67;;;6.40;99.90;;;;;;4999851;28;20552;-91
2021/12/26 10:45:10;;;;;;;11.97;7.87;;;6.50;99.90;;;;;;4998267;28;20945;-94
2021/12/26 10:47:39;;;;;;;11.10;7.97;;;6.60;99.90;;;;;;4995382;28;20457;-90
2021/12/26 10:50:11;;;;;;;10.87;8.03;;;6.60;99.90;;;;;;4996393;28;20454;-94
2021/12/26 10:52:39;;;;;;;11.17;7.93;;;6.60;99.90;;;;;;4995480;28;20515;-93
2021/12/26 10:55:09;;;;;;;13.57;9.73;;;6.50;99.90;;;;;;4995904;28;20473;-90
2021/12/26 10:57:38;;;;;;;25.77;15.00;;;6.70;99.90;;;;;;4998339;28;20437;-94
2021/12/26 11:00:16;;;;;;;10.87;7.77;;;6.80;99.90;;;;;;5008623;28;20929;-93
2021/12/26 11:02:45;;;;;;;9.70;7.60;;;6.90;99.90;;;;;;5013014;28;20459;-93
2021/12/26 11:05:16;;;;;;;9.07;6.90;;;7.00;99.90;;;;;;5013791;28;20473;-95
2021/12/26 11:07:53;;;;;;;12.50;8.93;;;7.10;99.90;;;;;;5000635;28;20789;-94
2021/12/26 11:10:25;;;;;;;9.43;6.50;;;7.20;99.90;;;;;;4994100;28;20437;-91
2021/12/26 11:12:53;;;;;;;8.83;6.40;;;7.20;99.90;;;;;;4980798;28;20454;-91
2021/12/26 11:15:22;;;;;;;7.60;6.40;;;7.10;99.90;;;;;;4984689;28;20457;-94
2021/12/26 11:17:52;;;;;;;8.53;6.77;;;6.80;99.90;;;;;;5023809;28;20516;-95
2021/12/26 11:20:27;;;;;;;10.70;8.00;;;7.10;99.90;;;;;;5012746;28;20911;-91
2021/12/26 11:22:55;;;;;;;8.10;6.23;;;;;;;;;;5022694;28;20477;-93
2021/12/26 11:25:22;;;;;;;9.20;7.47;;;7.60;99.90;;;;;;5019834;28;20460;-92
2021/12/26 11:27:50;;;;;;;8.47;5.80;;;7.90;99.90;;;;;;5020340;28;20921;-92
2021/12/26 11:30:18;;;;;;;6.60;5.90;;;8.10;99.90;;;;;;5021129;28;20448;-91
2021/12/26 11:32:48;;;;;;;9.60;6.47;;;;;;;;;;5026138;28;20471;-87
2021/12/26 11:35:15;;;;;;;7.23;6.10;;;;;;;;;;5022985;28;20492;-90
2021/12/26 11:37:44;;;;;;;8.43;6.97;;;9.20;99.90;;;;;;5015381;28;20456;-91
2021/12/26 11:40:15;;;;;;;8.30;5.43;;;9.50;99.90;;;;;;5016916;28;20438;-91
2021/12/26 11:43:04;;;;;;;6.10;4.97;;;9.60;99.90;;;;;;5014447;28;20449;-92
2021/12/26 11:45:37;;;;;;;6.20;5.47;;;9.60;99.90;;;;;;5020699;28;20457;-92
2021/12/26 11:48:23;;;;;;;7.83;5.73;;;9.30;99.90;;;;;;5011558;28;20932;-90
2021/12/26 11:51:19;;;;;;;6.20;5.10;;;8.90;99.90;;;;;;5018766;28;20945;-92
2021/12/26 11:54:09;;;;;;;5.67;5.07;;;8.60;99.90;;;;;;5021022;28;20453;-96
2021/12/26 11:56:50;;;;;;;6.00;4.83;;;8.60;99.90;;;;;;5013774;28;20449;-93
2021/12/26 11:59:37;;;;;;;6.77;5.33;;;8.40;99.90;;;;;;5026994;28;20450;-93
2021/12/26 12:02:05;;;;;;;5.50;4.60;;;;;;;;;;5041099;28;20446;-90
2021/12/26 12:04:33;;;;;;;6.07;4.70;;;8.40;99.90;;;;;;5042707;28;20513;-91
2021/12/26 12:07:05;;;;;;;5.07;4.57;;;8.40;99.90;;;;;;5039968;28;20447;-90
2021/12/26 12:09:35;;;;;;;5.60;4.97;;;8.20;99.90;;;;;;5033164;28;20448;-94
2021/12/26 12:12:10;;;;;;;6.30;4.90;;;8.40;99.90;;;;;;5031650;28;20448;-91
2021/12/26 12:14:53;;;;;;;6.67;5.77;;;8.60;99.90;;;;;;5040309;28;20468;-90
2021/12/26 12:17:23;;;;;;;6.03;5.43;;;8.90;99.90;;;;;;5039192;28;20475;-91
2021/12/26 12:20:13;;;;;;;5.87;4.97;;;8.80;99.90;;;;;;5026288;28;20433;-90
2021/12/26 12:23:17;;;;;;;5.67;4.77;;;8.30;99.90;;;;;;5049601;23;20506;-89
2021/12/26 12:25:52;;;;;;;7.97;4.77;;;8.50;99.90;;;;;;5036841;28;20446;-89
2021/12/26 12:28:42;;;;;;;7.70;4.33;;;8.60;99.90;;;;;;5036382;28;20543;-90
2021/12/26 12:31:21;;;;;;;5.97;4.60;;;8.50;99.90;;;;;;5032949;28;20469;-89
2021/12/26 12:34:02;;;;;;;5.03;4.53;;;8.50;99.90;;;;;;5045600;28;20523;-86
2021/12/26 12:36:31;;;;;;;4.30;3.90;;;8.40;99.90;;;;;;5028068;28;20528;-91
2021/12/26 12:39:12;;;;;;;3.57;3.20;;;8.30;99.90;;;;;;5016223;28;20456;-91
2021/12/26 12:41:42;;;;;;;4.00;3.60;;;8.00;99.90;;;;;;5016284;28;20440;-90
2021/12/26 12:44:25;;;;;;;4.33;3.50;;;7.90;99.90;;;;;;5046099;28;20443;-91
2021/12/26 12:46:58;;;;;;;5.40;4.00;;;7.90;99.90;;;;;;5054889;28;20439;-91
2021/12/26 12:49:46;;;;;;;4.50;3.73;;;8.00;99.90;;;;;;5054527;28;20960;-90
2021/12/26 12:52:39;;;;;;;4.77;4.20;;;7.80;99.90;;;;;;5028760;28;20441;-92
2021/12/26 12:55:08;;;;;;;6.30;4.40;;;7.80;99.90;;;;;;5014375;28;20499;-92
2021/12/26 12:57:39;;;;;;;6.00;5.03;;;8.00;99.90;;;;;;5013613;28;20469;-91
2021/12/26 13:00:44;;;;;;;7.27;5.30;;;8.10;99.90;;;;;;5019519;28;20464;-90
2021/12/26 13:03:16;;;;;;;5.27;4.77;;;7.90;99.90;;;;;;4970799;28;20453;-92
2021/12/26 13:05:44;;;;;;;7.23;5.70;;;;;;;;;;4973754;28;20562;-93
2021/12/26 13:08:18;;;;;;;6.47;4.60;;;8.00;99.90;;;;;;4975965;28;20463;-92
2021/12/26 13:10:50;;;;;;;5.43;4.87;;;8.10;99.90;;;;;;4977094;28;20953;-92
2021/12/26 13:13:26;;;;;;;5.63;5.13;;;;;;;;;;4971880;28;20442;-89
2021/12/26 13:15:56;;;;;;;6.00;4.83;;;8.30;99.90;;;;;;4992572;28;20494;-93
2021/12/26 13:18:27;;;;;;;5.43;4.80;;;8.30;99.90;;;;;;4983699;28;20458;-91
2021/12/26 13:20:56;;;;;;;6.77;5.37;;;8.30;99.90;;;;;;4993824;28;20468;-93
2021/12/26 13:23:23;;;;;;;6.47;4.87;;;;;;;;;;5025228;28;20480;-92
2021/12/26 13:25:51;;;;;;;5.77;5.17;;;;;;;;;;5036327;28;20788;-91
2021/12/26 13:28:23;;;;;;;7.93;6.20;;;8.30;99.90;;;;;;5037058;28;20579;-94
2021/12/26 13:30:54;;;;;;;6.97;5.70;;;8.20;99.90;;;;;;5036435;28;20530;-93
2021/12/26 13:33:23;;;;;;;5.10;4.60;;;8.30;99.90;;;;;;5037733;28;20597;-96
2021/12/26 13:35:50;;;;;;;6.73;5.07;;;;;;;;;;5037822;28;20491;-94
2021/12/26 13:38:20;;;;;;;16.00;9.93;;;;;;;;;;5041264;28;20448;-94
2021/12/26 13:40:48;;;;;;;6.77;5.70;;;8.40;99.90;;;;;;5036097;28;20480;-92
2021/12/26 13:43:16;;;;;;;8.80;7.07;;;;;;;;;;5016849;28;20450;-93
2021/12/26 13:45:45;;;;;;;6.70;6.10;;;;;;;;;;5023555;28;20453;-94
2021/12/26 13:48:27;;;;;;;6.17;4.67;;;8.50;99.90;;;;;;5030844;28;20517;-94
2021/12/26 13:50:56;;;;;;;5.07;4.57;;;;;;;;;;5013877;28;20457;-94
2021/12/26 13:53:24;;;;;;;5.73;5.17;;;;;;;;;;5030355;28;20442;-94
2021/12/26 13:55:54;;;;;;;5.53;4.97;;;;;;;;;;5034120;28;20480;-94
2021/12/26 13:58:26;;;;;;;6.07;5.50;;;;;;;;;;5036586;28;20460;-93
2021/12/26 14:00:58;;;;;;;5.20;4.67;;;8.30;99.90;;;;;;5040786;28;20527;-93
2021/12/26 14:03:25;;;;;;;6.07;4.30;;;8.30;99.90;;;;;;5033431;28;20451;-94